Terminal Aerodrome Forecast
Issued by NWS

Home | Current Version | Previous Version | Text Only | Print | Product List | Glossary On
Versions: 1 2 3 4 5 6 7 8 9 10 11 12 13 14 15
597
FTUS43 KDLH 160520
TAFHYR
TAF
KHYR 160520Z 1606/1706 VRB02KT P6SM SCT250
     FM161900 23010KT P6SM FEW250
     FM170200 23009KT P6SM FEW250=

USA.gov is the U.S. government's official web portal to all federal, state and local government web resources and services.